Time,TemperatureF,DewpointF,PressureIn,WindDirection,WindDirectionDegrees,WindSpeedMPH,WindSpeedGustMPH,Humidity,HourlyPrecipIn,Conditions,Clouds,dailyrainin,SolarRadiationWatts/m^2,SoftwareType,DateUTC
2013-05-19 00:13:00,56.4,55.0,30.28,South,178,1.0,7.0,96,0.03,,,0.00,0,weatherlink.com 1.10,2013-05-19 04:13:00,
2013-05-19 00:28:00,56.4,55.0,30.28,SSE,153,2.0,6.0,96,0.01,,,0.00,0,weatherlink.com 1.10,2013-05-19 04:28:00,
2013-05-19 00:43:00,56.2,55.0,30.28,SSE,148,6.0,12.0,95,0.02,,,0.02,0,weatherlink.com 1.10,2013-05-19 04:43:00,
2013-05-19 00:59:00,56.1,55.0,30.28,SSW,198,0.0,5.0,96,0.04,,,0.04,0,weatherlink.com 1.10,2013-05-19 04:59:00,
2013-05-19 01:14:00,55.9,55.0,30.28,South,172,0.0,4.0,96,0.06,,,0.06,0,weatherlink.com 1.10,2013-05-19 05:14:00,
2013-05-19 01:29:00,55.9,55.0,30.27,SSE,161,4.0,7.0,96,0.10,,,0.10,0,weatherlink.com 1.10,2013-05-19 05:29:00,
2013-05-19 01:44:00,55.7,55.0,30.27,South,186,5.0,9.0,96,0.09,,,0.12,0,weatherlink.com 1.10,2013-05-19 05:44:00,
2013-05-19 01:59:00,55.6,55.0,30.27,South,186,2.0,5.0,96,0.09,,,0.13,0,weatherlink.com 1.10,2013-05-19 05:59:00,
2013-05-19 02:14:00,55.4,55.0,30.27,South,169,0.0,9.0,99,0.09,,,0.15,0,weatherlink.com 1.10,2013-05-19 06:14:00,
2013-05-19 02:29:00,55.4,54.0,30.26,SSW,199,2.0,9.0,96,0.05,,,0.15,0,weatherlink.com 1.10,2013-05-19 06:29:00,
2013-05-19 02:44:00,55.2,54.0,30.25,SSE,162,0.0,8.0,96,0.04,,,0.16,0,weatherlink.com 1.10,2013-05-19 06:44:00,
2013-05-19 02:59:00,55.1,54.0,30.25,SSE,157,0.0,9.0,96,0.03,,,0.16,0,weatherlink.com 1.10,2013-05-19 06:59:00,
2013-05-19 03:14:00,55.1,54.0,30.25,SSE,150,0.0,6.0,96,0.02,,,0.17,0,weatherlink.com 1.10,2013-05-19 07:14:00,
2013-05-19 03:29:00,55.1,54.0,30.24,South,179,3.0,4.0,96,0.02,,,0.17,0,weatherlink.com 1.10,2013-05-19 07:29:00,
2013-05-19 03:44:00,55.2,54.0,30.25,South,169,0.0,7.0,96,0.01,,,0.17,0,weatherlink.com 1.10,2013-05-19 07:44:00,
2013-05-19 03:59:00,55.3,54.0,30.25,South,176,0.0,6.0,96,0.01,,,0.17,0,weatherlink.com 1.10,2013-05-19 07:59:00,
2013-05-19 04:14:00,55.4,54.0,30.25,South,177,2.0,4.0,96,0.00,,,0.17,0,weatherlink.com 1.10,2013-05-19 08:14:00,
2013-05-19 04:29:00,55.5,54.0,30.25,South,177,0.0,3.0,96,0.00,,,0.17,0,weatherlink.com 1.10,2013-05-19 08:29:00,
2013-05-19 04:44:00,55.6,55.0,30.25,South,177,0.0,2.0,96,0.00,,,0.17,0,weatherlink.com 1.10,2013-05-19 08:44:00,
2013-05-19 04:59:00,55.7,55.0,30.25,SSE,155,0.0,8.0,96,0.00,,,0.17,0,weatherlink.com 1.10,2013-05-19 08:59:00,
2013-05-19 05:14:00,55.8,55.0,30.25,SE,145,0.0,10.0,96,0.00,,,0.17,0,weatherlink.com 1.10,2013-05-19 09:14:00,
2013-05-19 05:29:00,55.9,55.0,30.25,SE,136,0.0,6.0,96,0.00,,,0.17,0,weatherlink.com 1.10,2013-05-19 09:29:00,
2013-05-19 05:44:00,56.1,55.0,30.25,SSE,164,1.0,6.0,97,0.00,,,0.17,0,weatherlink.com 1.10,2013-05-19 09:44:00,
2013-05-19 05:59:00,56.3,56.0,30.26,South,178,0.0,4.0,97,0.00,,,0.17,0,weatherlink.com 1.10,2013-05-19 09:59:00,
2013-05-19 06:14:00,56.4,56.0,30.27,SSW,194,0.0,7.0,97,0.00,,,0.17,5,weatherlink.com 1.10,2013-05-19 10:14:00,
2013-05-19 06:29:00,56.6,56.0,30.27,South,188,0.0,3.0,97,0.01,,,0.18,7,weatherlink.com 1.10,2013-05-19 10:29:00,
2013-05-19 06:44:00,56.7,56.0,30.27,South,186,4.0,7.0,97,0.01,,,0.18,12,weatherlink.com 1.10,2013-05-19 10:44:00,
2013-05-19 06:59:00,56.9,56.0,30.27,South,179,5.0,9.0,97,0.01,,,0.18,25,weatherlink.com 1.10,2013-05-19 10:59:00,
2013-05-19 07:14:00,57.1,56.0,30.27,SSE,159,6.0,6.0,97,0.01,,,0.18,14,weatherlink.com 1.10,2013-05-19 11:14:00,
2013-05-19 07:29:00,57.3,57.0,30.27,SE,135,1.0,5.0,97,0.00,,,0.18,18,weatherlink.com 1.10,2013-05-19 11:29:00,
2013-05-19 07:45:00,57.3,57.0,30.27,South,183,0.0,10.0,97,0.01,,,0.19,26,weatherlink.com 1.10,2013-05-19 11:45:00,
2013-05-19 07:59:00,57.4,57.0,30.27,SSE,147,0.0,5.0,97,0.04,,,0.22,39,weatherlink.com 1.10,2013-05-19 11:59:00,
2013-05-19 08:15:00,57.5,57.0,30.27,SSE,157,2.0,8.0,97,0.05,,,0.23,26,weatherlink.com 1.10,2013-05-19 12:15:00,
2013-05-19 08:29:00,57.5,57.0,30.27,South,183,5.0,8.0,97,0.06,,,0.24,39,weatherlink.com 1.10,2013-05-19 12:29:00,
2013-05-19 08:45:00,57.5,57.0,30.27,NE,53,0.0,10.0,97,0.06,,,0.25,51,weatherlink.com 1.10,2013-05-19 12:45:00,
2013-05-19 08:59:00,57.6,57.0,30.27,South,175,0.0,10.0,97,0.03,,,0.25,46,weatherlink.com 1.10,2013-05-19 12:59:00,
2013-05-19 09:15:00,57.5,57.0,30.27,South,184,0.0,9.0,97,0.02,,,0.25,51,weatherlink.com 1.10,2013-05-19 13:15:00,
2013-05-19 09:29:00,57.4,57.0,30.28,South,189,0.0,10.0,97,0.02,,,0.26,42,weatherlink.com 1.10,2013-05-19 13:29:00,
2013-05-19 09:45:00,57.3,57.0,30.28,South,179,0.0,9.0,97,0.02,,,0.27,39,weatherlink.com 1.10,2013-05-19 13:45:00,
2013-05-19 10:00:00,57.3,57.0,30.28,South,180,1.0,7.0,97,0.02,,,0.27,51,weatherlink.com 1.10,2013-05-19 14:00:00,
2013-05-19 10:15:00,57.3,57.0,30.28,South,181,0.0,10.0,97,0.02,,,0.27,70,weatherlink.com 1.10,2013-05-19 14:15:00,
2013-05-19 10:30:00,57.2,57.0,30.28,SW,214,0.0,6.0,98,0.02,,,0.28,81,weatherlink.com 1.10,2013-05-19 14:30:00,
2013-05-19 10:46:00,57.2,57.0,30.28,South,191,0.0,7.0,98,0.02,,,0.29,72,weatherlink.com 1.10,2013-05-19 14:46:00,
2013-05-19 11:00:00,57.2,57.0,30.28,SE,136,2.0,7.0,98,0.02,,,0.29,102,weatherlink.com 1.10,2013-05-19 15:00:00,
2013-05-19 11:16:00,57.3,57.0,30.28,SSE,168,0.0,5.0,98,0.02,,,0.29,84,weatherlink.com 1.10,2013-05-19 15:16:00,
2013-05-19 11:30:00,57.3,57.0,30.28,SSE,158,3.0,8.0,98,0.01,,,0.29,70,weatherlink.com 1.10,2013-05-19 15:30:00,
2013-05-19 11:46:00,57.1,57.0,30.27,SSW,194,2.0,9.0,98,0.00,,,0.29,65,weatherlink.com 1.10,2013-05-19 15:46:00,
2013-05-19 12:00:00,57.1,57.0,30.27,South,190,3.0,10.0,98,0.00,,,0.29,62,weatherlink.com 1.10,2013-05-19 16:00:00,
2013-05-19 12:16:00,57.1,57.0,30.27,NNW,344,1.0,6.0,98,0.01,,,0.30,67,weatherlink.com 1.10,2013-05-19 16:16:00,
2013-05-19 12:30:00,57.1,57.0,30.27,SE,137,2.0,9.0,98,0.01,,,0.30,58,weatherlink.com 1.10,2013-05-19 16:30:00,
2013-05-19 12:46:00,57.1,57.0,30.26,South,191,1.0,9.0,98,0.01,,,0.30,62,weatherlink.com 1.10,2013-05-19 16:46:00,
2013-05-19 13:00:00,57.2,57.0,30.25,South,179,0.0,7.0,98,0.01,,,0.31,74,weatherlink.com 1.10,2013-05-19 17:00:00,
2013-05-19 13:16:00,57.4,57.0,30.25,SSE,164,0.0,5.0,98,0.01,,,0.31,98,weatherlink.com 1.10,2013-05-19 17:16:00,
2013-05-19 13:30:00,57.7,57.0,30.24,ESE,121,1.0,5.0,98,0.01,,,0.31,86,weatherlink.com 1.10,2013-05-19 17:30:00,
2013-05-19 13:46:00,58.1,58.0,30.23,SSE,149,5.0,8.0,98,0.01,,,0.31,76,weatherlink.com 1.10,2013-05-19 17:46:00,
2013-05-19 14:01:00,58.3,58.0,30.23,East,82,2.0,12.0,98,0.00,,,0.31,100,weatherlink.com 1.10,2013-05-19 18:01:00,
2013-05-19 14:16:00,58.3,58.0,30.22,South,190,4.0,8.0,98,0.00,,,0.31,70,weatherlink.com 1.10,2013-05-19 18:16:00,
2013-05-19 14:31:00,58.3,58.0,30.22,SSE,153,2.0,10.0,98,0.00,,,0.31,60,weatherlink.com 1.10,2013-05-19 18:31:00,
2013-05-19 14:46:00,58.2,58.0,30.22,South,187,0.0,6.0,98,0.00,,,0.31,67,weatherlink.com 1.10,2013-05-19 18:46:00,
2013-05-19 15:01:00,58.2,58.0,30.22,South,173,0.0,6.0,98,0.00,,,0.31,63,weatherlink.com 1.10,2013-05-19 19:01:00,
2013-05-19 15:17:00,58.1,58.0,30.21,SSE,159,2.0,7.0,98,0.01,,,0.32,46,weatherlink.com 1.10,2013-05-19 19:17:00,
2013-05-19 15:32:00,58.2,58.0,30.20,SSE,168,0.0,11.0,98,0.01,,,0.32,44,weatherlink.com 1.10,2013-05-19 19:32:00,
2013-05-19 15:47:00,58.1,58.0,30.19,South,180,2.0,10.0,98,0.02,,,0.33,62,weatherlink.com 1.10,2013-05-19 19:47:00,
2013-05-19 16:02:00,58.1,58.0,30.19,SSE,160,1.0,7.0,98,0.02,,,0.33,62,weatherlink.com 1.10,2013-05-19 20:02:00,
2013-05-19 16:18:00,58.2,58.0,30.19,SSE,148,0.0,9.0,98,0.01,,,0.33,62,weatherlink.com 1.10,2013-05-19 20:18:00,
2013-05-19 16:32:00,58.3,58.0,30.18,SSE,157,2.0,6.0,98,0.01,,,0.33,49,weatherlink.com 1.10,2013-05-19 20:32:00,
2013-05-19 16:48:00,58.5,58.0,30.18,South,177,2.0,4.0,98,0.00,,,0.33,39,weatherlink.com 1.10,2013-05-19 20:48:00,
2013-05-19 17:02:00,58.6,58.0,30.18,SSE,162,0.0,4.0,98,0.00,,,0.33,35,weatherlink.com 1.10,2013-05-19 21:02:00,
2013-05-19 17:18:00,58.7,58.0,30.18,SSE,165,0.0,5.0,98,0.00,,,0.33,42,weatherlink.com 1.10,2013-05-19 21:18:00,
2013-05-19 17:32:00,59.0,59.0,30.17,SSE,163,6.0,7.0,98,0.00,,,0.33,32,weatherlink.com 1.10,2013-05-19 21:32:00,
2013-05-19 17:47:00,59.2,59.0,30.17,South,177,1.0,6.0,98,0.00,,,0.33,28,weatherlink.com 1.10,2013-05-19 21:47:00,
2013-05-19 18:03:00,59.3,59.0,30.17,South,186,0.0,8.0,98,0.01,,,0.34,26,weatherlink.com 1.10,2013-05-19 22:03:00,
2013-05-19 18:18:00,59.4,59.0,30.17,SSE,163,0.0,4.0,98,0.01,,,0.34,23,weatherlink.com 1.10,2013-05-19 22:18:00,
2013-05-19 18:33:00,59.5,59.0,30.18,South,183,0.0,3.0,98,0.01,,,0.34,32,weatherlink.com 1.10,2013-05-19 22:33:00,
2013-05-19 18:48:00,59.6,59.0,30.18,South,183,0.0,2.0,98,0.00,,,0.34,21,weatherlink.com 1.10,2013-05-19 22:48:00,
2013-05-19 19:02:00,59.6,59.0,30.17,South,183,0.0,2.0,98,0.00,,,0.34,12,weatherlink.com 1.10,2013-05-19 23:02:00,
2013-05-19 19:18:00,59.7,60.0,30.17,South,183,0.0,3.0,100,0.00,,,0.34,12,weatherlink.com 1.10,2013-05-19 23:18:00,
2013-05-19 19:33:00,59.8,60.0,30.17,South,183,0.0,1.0,99,0.00,,,0.34,5,weatherlink.com 1.10,2013-05-19 23:33:00,
2013-05-19 19:47:00,59.9,60.0,30.17,South,183,0.0,0.0,99,0.01,,,0.35,5,weatherlink.com 1.10,2013-05-19 23:47:00,
2013-05-19 20:03:00,59.9,60.0,30.17,South,183,0.0,3.0,99,0.01,,,0.35,0,weatherlink.com 1.10,2013-05-20 00:03:00,
2013-05-19 20:17:00,59.9,60.0,30.17,South,183,0.0,0.0,99,0.01,,,0.35,0,weatherlink.com 1.10,2013-05-20 00:17:00,
2013-05-19 20:33:00,59.8,60.0,30.16,South,183,0.0,2.0,99,0.01,,,0.35,0,weatherlink.com 1.10,2013-05-20 00:33:00,
2013-05-19 20:48:00,59.8,60.0,30.17,South,183,0.0,2.0,99,0.00,,,0.35,0,weatherlink.com 1.10,2013-05-20 00:48:00,
2013-05-19 21:04:00,59.8,60.0,30.16,South,183,0.0,3.0,99,0.00,,,0.35,0,weatherlink.com 1.10,2013-05-20 01:04:00,
2013-05-19 21:18:00,59.8,60.0,30.16,South,183,0.0,3.0,99,0.00,,,0.35,0,weatherlink.com 1.10,2013-05-20 01:18:00,
2013-05-19 21:33:00,59.7,60.0,30.15,South,183,0.0,4.0,99,0.00,,,0.35,0,weatherlink.com 1.10,2013-05-20 01:33:00,
2013-05-19 21:49:00,59.8,60.0,30.15,South,183,0.0,1.0,99,0.00,,,0.35,0,weatherlink.com 1.10,2013-05-20 01:49:00,
2013-05-19 22:03:00,59.9,60.0,30.16,SSE,167,1.0,5.0,99,0.00,,,0.35,0,weatherlink.com 1.10,2013-05-20 02:03:00,
2013-05-19 22:19:00,60.0,60.0,30.16,SSE,167,0.0,3.0,99,0.00,,,0.35,0,weatherlink.com 1.10,2013-05-20 02:19:00,
2013-05-19 22:33:00,60.0,60.0,30.17,SSE,167,0.0,1.0,99,0.00,,,0.35,0,weatherlink.com 1.10,2013-05-20 02:33:00,
2013-05-19 22:49:00,60.1,60.0,30.16,SSE,167,0.0,1.0,99,0.00,,,0.35,0,weatherlink.com 1.10,2013-05-20 02:49:00,
2013-05-19 23:05:00,60.2,60.0,30.16,SSE,168,0.0,1.0,99,0.00,,,0.35,0,weatherlink.com 1.10,2013-05-20 03:05:00,
2013-05-19 23:19:00,60.3,60.0,30.16,SSE,167,0.0,2.0,99,0.00,,,0.35,0,weatherlink.com 1.10,2013-05-20 03:19:00,
2013-05-19 23:35:00,60.4,60.0,30.16,SSE,167,0.0,0.0,99,0.00,,,0.35,0,weatherlink.com 1.10,2013-05-20 03:35:00,
2013-05-19 23:49:00,60.4,60.0,30.16,SSE,167,0.0,0.0,99,0.00,,,0.35,0,weatherlink.com 1.10,2013-05-20 03:49:00,